createdAt,value
2019-04-22T00:00:55.992Z,13.60
2019-04-22T00:03:33.960Z,12.20
2019-04-22T00:06:14.796Z,11.23
2019-04-22T00:08:49.114Z,12.30
2019-04-22T00:11:25.890Z,12.53
2019-04-22T00:13:52.024Z,12.73
2019-04-22T00:16:26.448Z,12.23
2019-04-22T00:21:25.817Z,11.80
2019-04-22T00:23:51.943Z,11.73
2019-04-22T00:26:26.095Z,10.67
2019-04-22T00:31:31.669Z,10.77
2019-04-22T00:33:58.878Z,10.73
2019-04-22T00:36:28.925Z,11.30
2019-04-22T00:39:07.156Z,10.93
2019-04-22T00:41:40.575Z,10.40
2019-04-22T00:44:02.933Z,10.73
2019-04-22T00:46:39.683Z,10.63
2019-04-22T00:49:43.886Z,10.03
2019-04-22T00:51:36.883Z,10.27
2019-04-22T00:54:03.315Z,10.00
2019-04-22T00:56:38.692Z,10.10
2019-04-22T00:59:01.360Z,10.63
2019-04-22T01:01:32.113Z,10.00
2019-04-22T01:06:35.802Z,9.73
2019-04-22T01:09:04.655Z,9.60
2019-04-22T01:11:37.735Z,9.73
2019-04-22T01:14:01.290Z,10.00
2019-04-22T01:16:35.695Z,9.07
2019-04-22T01:19:09.026Z,9.37
2019-04-22T01:24:05.857Z,9.40
2019-04-22T01:26:34.510Z,9.03
2019-04-22T01:29:01.050Z,8.63
2019-04-22T01:31:25.329Z,8.40
2019-04-22T01:34:05.438Z,9.53
2019-04-22T01:36:43.156Z,8.73
2019-04-22T01:39:18.175Z,9.97
2019-04-22T01:41:55.399Z,9.47
2019-04-22T01:44:22.875Z,9.87
2019-04-22T01:46:54.010Z,9.43
2019-04-22T01:49:21.460Z,9.07
2019-04-22T01:59:14.015Z,9.33
2019-04-22T02:01:49.944Z,9.13
2019-04-22T02:04:26.948Z,8.07
2019-04-22T02:06:52.367Z,8.50
2019-04-22T02:09:22.472Z,9.40
2019-04-22T02:11:56.908Z,9.33
2019-04-22T02:14:26.973Z,8.73
2019-04-22T02:16:56.133Z,8.17
2019-04-22T02:19:23.524Z,8.83
2019-04-22T02:21:51.610Z,8.50
2019-04-22T02:24:26.476Z,8.57
2019-04-22T02:26:49.884Z,8.60
2019-04-22T02:29:27.022Z,8.97
2019-04-22T02:31:59.414Z,8.60
2019-04-22T02:36:58.285Z,8.23
2019-04-22T02:39:24.523Z,8.40
2019-04-22T02:41:57.691Z,7.87
2019-04-22T02:44:33.268Z,8.03
2019-04-22T02:47:18.346Z,7.73
2019-04-22T02:51:52.207Z,7.80
2019-04-22T02:54:44.667Z,8.20
2019-04-22T02:56:56.473Z,7.67
2019-04-22T03:01:54.215Z,8.50
2019-04-22T03:06:50.497Z,7.97
2019-04-22T03:12:21.982Z,8.50
2019-04-22T03:14:30.718Z,8.70
2019-04-22T03:16:57.800Z,8.87
2019-04-22T03:19:46.827Z,7.73
2019-04-22T03:22:02.415Z,8.23
2019-04-22T03:24:46.271Z,8.27
2019-04-22T03:27:01.100Z,8.17
2019-04-22T03:30:40.234Z,8.73
2019-04-22T03:35:31.665Z,8.10
2019-04-22T03:37:43.186Z,8.90
2019-04-22T03:40:14.315Z,8.47
2019-04-22T03:42:37.475Z,9.43
2019-04-22T03:45:14.702Z,8.40
2019-04-22T03:47:36.659Z,7.97
2019-04-22T03:52:26.971Z,8.40
2019-04-22T03:55:09.168Z,8.93
2019-04-22T03:57:49.644Z,9.03
2019-04-22T04:00:08.273Z,8.37
2019-04-22T04:04:58.732Z,8.27
2019-04-22T04:07:48.406Z,9.73
2019-04-22T04:10:10.494Z,8.57
2019-04-22T04:12:38.512Z,8.40
2019-04-22T04:20:10.967Z,8.90
2019-04-22T04:22:56.132Z,7.97
2019-04-22T04:27:55.602Z,9.07
2019-04-22T04:30:13.966Z,8.63
2019-04-22T04:32:50.069Z,9.60
2019-04-22T04:35:23.658Z,9.33
2019-04-22T04:37:45.097Z,9.20
2019-04-22T04:40:25.054Z,9.73
2019-04-22T04:58:09.604Z,9.40
2019-04-22T05:02:48.941Z,9.10
2019-04-22T05:07:43.528Z,9.67
2019-04-22T05:12:52.717Z,9.87
2019-04-22T05:15:18.516Z,9.63
2019-04-22T05:17:45.542Z,10.40
2019-04-22T05:20:28.996Z,9.53
2019-04-22T05:22:41.300Z,9.67
2019-04-22T05:25:13.108Z,10.50
2019-04-22T05:27:40.014Z,10.07
2019-04-22T05:32:43.229Z,10.77
2019-04-22T05:35:14.328Z,11.30
2019-04-22T05:37:43.248Z,11.57
2019-04-22T05:40:19.311Z,11.37
2019-04-22T05:42:39.506Z,11.10
2019-04-22T05:45:11.731Z,10.67
2019-04-22T05:47:44.410Z,11.53
2019-04-22T05:50:08.177Z,11.90
2019-04-22T05:52:52.653Z,11.40
2019-04-22T05:55:43.593Z,11.10
2019-04-22T05:57:59.736Z,11.13
2019-04-22T06:00:35.505Z,11.43
2019-04-22T06:05:24.491Z,10.20
2019-04-22T06:07:53.793Z,12.27
2019-04-22T06:10:35.804Z,13.60
2019-04-22T06:12:59.649Z,10.37
2019-04-22T06:15:29.678Z,10.10
2019-04-22T06:18:09.607Z,9.50
2019-04-22T06:20:37.364Z,8.87
2019-04-22T06:23:04.456Z,7.90
2019-04-22T06:25:49.290Z,7.80
2019-04-22T06:28:15.814Z,8.00
2019-04-22T06:30:35.714Z,7.63
2019-04-22T06:33:09.417Z,8.18
2019-04-22T06:35:45.704Z,7.60
2019-04-22T06:38:25.688Z,8.10
2019-04-22T06:40:42.292Z,7.00
2019-04-22T06:43:09.163Z,6.80
2019-04-22T06:45:35.635Z,6.62
2019-04-22T06:53:09.189Z,6.63
2019-04-22T06:55:43.905Z,6.40
2019-04-22T06:58:10.057Z,6.10
2019-04-22T07:00:42.918Z,6.33
2019-04-22T07:03:28.703Z,6.77
2019-04-22T07:05:41.267Z,6.40
2019-04-22T07:08:30.413Z,6.50
2019-04-22T07:10:43.662Z,6.67
2019-04-22T07:13:17.390Z,6.65
2019-04-22T07:15:50.392Z,6.33
2019-04-22T07:18:18.088Z,6.00
2019-04-22T07:20:44.203Z,6.63
2019-04-22T07:23:17.762Z,6.60
2019-04-22T07:25:49.280Z,6.75
2019-04-22T07:31:02.355Z,6.53
2019-04-22T07:38:17.526Z,6.20
2019-04-22T07:40:51.881Z,5.72
2019-04-22T07:43:19.963Z,5.10
2019-04-22T07:48:26.173Z,5.03
2019-04-22T07:51:05.535Z,5.37
2019-04-22T07:53:13.240Z,4.37
2019-04-22T07:55:50.510Z,4.22
2019-04-22T07:58:18.699Z,4.58
2019-04-22T08:00:53.348Z,4.15
2019-04-22T08:03:18.377Z,4.22
2019-04-22T08:06:00.068Z,3.70
2019-04-22T08:08:26.132Z,3.72
2019-04-22T08:10:48.613Z,4.15
2019-04-22T08:13:16.956Z,3.98
2019-04-22T08:15:54.219Z,4.00
2019-04-22T08:18:21.994Z,3.60
2019-04-22T08:20:47.210Z,3.77
2019-04-22T08:23:23.737Z,3.55
2019-04-22T08:25:49.507Z,3.92
2019-04-22T08:28:26.586Z,4.72
2019-04-22T08:30:55.067Z,4.80
2019-04-22T08:36:09.050Z,4.22
2019-04-22T08:38:30.872Z,4.53
2019-04-22T08:41:16.548Z,4.10
2019-04-22T08:43:48.273Z,3.95
2019-04-22T08:46:18.632Z,3.40
2019-04-22T08:48:47.856Z,3.80
2019-04-22T08:51:19.640Z,4.37
2019-04-22T08:53:53.743Z,5.45
2019-04-22T08:56:28.019Z,4.75
2019-04-22T08:58:50.759Z,5.10
2019-04-22T09:01:20.802Z,4.45
2019-04-22T09:03:46.914Z,5.08
2019-04-22T09:06:20.141Z,5.10
2019-04-22T09:08:50.069Z,4.70
2019-04-22T09:11:20.216Z,5.17
2019-04-22T09:13:50.697Z,4.67
2019-04-22T09:16:19.336Z,5.20
2019-04-22T09:18:48.684Z,5.10
2019-04-22T09:21:31.619Z,3.90
2019-04-22T09:23:52.604Z,5.03
2019-04-22T09:28:53.756Z,5.45
2019-04-22T09:31:19.598Z,5.33
2019-04-22T09:33:45.993Z,4.95
2019-04-22T09:36:22.757Z,5.00
2019-04-22T09:38:46.627Z,5.10
2019-04-22T09:41:23.842Z,4.83
2019-04-22T09:43:53.387Z,4.30
2019-04-22T09:46:22.770Z,4.87
2019-04-22T09:48:56.405Z,4.45
2019-04-22T09:51:18.633Z,4.80
2019-04-22T09:53:54.870Z,4.47
2019-04-22T09:56:23.838Z,4.80
2019-04-22T09:58:49.198Z,4.60
2019-04-22T10:03:56.178Z,4.35
2019-04-22T10:06:29.388Z,4.35
2019-04-22T10:09:24.056Z,4.42
2019-04-22T10:11:27.938Z,4.08
2019-04-22T10:13:53.818Z,3.83
2019-04-22T10:16:29.187Z,4.20
2019-04-22T10:18:52.863Z,4.67
2019-04-22T10:21:36.513Z,4.25
2019-04-22T10:23:53.572Z,4.45
2019-04-22T10:26:30.079Z,4.65
2019-04-22T10:31:31.068Z,3.85
2019-04-22T10:33:48.198Z,3.42
2019-04-22T10:35:59.392Z,3.35
2019-04-22T10:38:28.407Z,3.42
2019-04-22T10:40:58.585Z,3.77
2019-04-22T10:43:27.557Z,3.40
2019-04-22T10:45:56.133Z,3.00
2019-04-22T10:48:26.078Z,3.60
2019-04-22T10:50:54.917Z,4.10
2019-04-22T10:53:23.833Z,3.42
2019-04-22T10:55:52.371Z,3.00
2019-04-22T10:58:22.367Z,2.90
2019-04-22T11:00:52.266Z,3.27
2019-04-22T11:03:22.484Z,3.02
2019-04-22T11:05:53.931Z,2.80
2019-04-22T11:08:31.617Z,2.90
2019-04-22T11:11:08.316Z,3.20
2019-04-22T11:13:22.216Z,2.95
2019-04-22T11:15:51.052Z,3.30
2019-04-22T11:18:20.046Z,2.87
2019-04-22T11:20:49.574Z,3.02
2019-04-22T11:23:18.671Z,2.90
2019-04-22T11:25:47.996Z,2.58
2019-04-22T11:28:18.003Z,2.87
2019-04-22T11:30:48.134Z,3.00
2019-04-22T11:33:18.288Z,3.80
2019-04-22T11:35:47.972Z,3.50
2019-04-22T11:38:17.238Z,3.33
2019-04-22T11:40:51.724Z,3.58
2019-04-22T11:43:16.445Z,3.10
2019-04-22T11:45:45.230Z,3.30
2019-04-22T11:48:15.300Z,3.33
2019-04-22T11:50:44.086Z,3.45
2019-04-22T11:53:13.107Z,3.10
2019-04-22T11:55:42.575Z,3.60
2019-04-22T11:58:12.708Z,3.20
2019-04-22T12:00:43.122Z,2.83
2019-04-22T12:03:12.673Z,2.92
2019-04-22T12:05:41.699Z,3.02
2019-04-22T12:08:11.271Z,3.20
2019-04-22T12:10:48.305Z,3.10
2019-04-22T12:13:10.387Z,2.98
2019-04-22T12:15:40.622Z,3.20
2019-04-22T12:18:11.208Z,2.67
2019-04-22T12:20:41.291Z,2.90
2019-04-22T12:23:11.146Z,2.35
2019-04-22T12:25:48.745Z,2.40
2019-04-22T12:28:11.164Z,2.52
2019-04-22T12:30:39.872Z,2.12
2019-04-22T12:33:11.017Z,2.22
2019-04-22T12:35:38.829Z,2.15
2019-04-22T12:38:10.270Z,2.10
2019-04-22T12:40:46.775Z,2.47
2019-04-22T12:43:10.262Z,2.20
2019-04-22T12:45:38.558Z,2.40
2019-04-22T12:48:08.704Z,1.98
2019-04-22T12:50:41.785Z,2.17
2019-04-22T12:53:13.753Z,2.58
2019-04-22T12:55:38.019Z,2.37
2019-04-22T12:58:07.622Z,2.20
2019-04-22T13:00:36.422Z,2.50
2019-04-22T13:03:05.598Z,2.35
2019-04-22T13:05:35.265Z,2.50
2019-04-22T13:08:05.453Z,2.55
2019-04-22T13:10:45.650Z,2.75
2019-04-22T13:13:04.987Z,2.30
2019-04-22T13:15:35.098Z,2.80
2019-04-22T13:18:14.931Z,3.12
2019-04-22T13:20:34.545Z,2.30
2019-04-22T13:23:04.041Z,2.70
2019-04-22T13:25:32.654Z,3.10
2019-04-22T13:28:01.143Z,2.90
2019-04-22T13:30:32.580Z,2.98
2019-04-22T13:33:02.600Z,2.75
2019-04-22T13:35:31.835Z,3.27
2019-04-22T13:38:01.249Z,3.15
2019-04-22T13:40:30.773Z,2.80
2019-04-22T13:43:00.771Z,3.35
2019-04-22T13:45:29.807Z,3.12
2019-04-22T13:48:16.678Z,3.62
2019-04-22T13:51:01.000Z,3.27
2019-04-22T13:58:16.081Z,3.70
2019-04-22T14:00:34.596Z,3.60
2019-04-22T14:03:08.910Z,3.30
2019-04-22T14:05:40.466Z,3.65
2019-04-22T14:08:10.697Z,3.60
2019-04-22T14:10:40.587Z,3.77
2019-04-22T14:13:09.954Z,3.75
2019-04-22T14:15:40.134Z,4.10
2019-04-22T14:18:08.937Z,4.37
2019-04-22T14:20:38.687Z,3.83
2019-04-22T14:23:08.333Z,4.15
2019-04-22T14:25:38.692Z,4.30
2019-04-22T14:28:13.071Z,4.25
2019-04-22T14:30:38.788Z,4.05
2019-04-22T14:33:07.359Z,4.20
2019-04-22T14:35:38.010Z,4.10
2019-04-22T14:38:06.521Z,4.12
2019-04-22T14:40:37.257Z,3.42
2019-04-22T14:43:29.015Z,3.40
2019-04-22T14:46:08.175Z,3.40
2019-04-22T14:48:36.262Z,4.20
2019-04-22T14:50:57.696Z,4.62
2019-04-22T14:53:29.370Z,4.72
2019-04-22T14:55:38.440Z,5.20
2019-04-22T14:58:08.900Z,5.25
2019-04-22T15:00:38.316Z,4.70
2019-04-22T15:03:08.239Z,4.40
2019-04-22T15:05:37.413Z,4.62
2019-04-22T15:08:06.991Z,4.72
2019-04-22T15:10:36.198Z,3.90
2019-04-22T15:13:05.416Z,4.42
2019-04-22T15:15:56.823Z,4.20
2019-04-22T15:18:31.830Z,4.10
2019-04-22T15:21:05.007Z,4.22
2019-04-22T15:23:34.805Z,4.83
2019-04-22T15:26:04.597Z,4.37
2019-04-22T15:28:33.445Z,4.85
2019-04-22T15:31:03.484Z,4.92
2019-04-22T15:33:33.099Z,5.55
2019-04-22T15:36:01.724Z,6.30
2019-04-22T15:38:30.344Z,5.60
2019-04-22T15:40:58.874Z,7.00
2019-04-22T15:43:31.142Z,6.62
2019-04-22T15:46:00.447Z,6.37
2019-04-22T15:48:28.870Z,6.53
2019-04-22T15:50:58.447Z,6.50
2019-04-22T15:53:27.605Z,7.05
2019-04-22T15:55:56.596Z,8.95
2019-04-22T15:58:25.818Z,6.47
2019-04-22T16:01:06.195Z,6.08
2019-04-22T16:03:24.888Z,6.60
2019-04-22T16:05:54.441Z,7.10
2019-04-22T16:08:24.534Z,6.35
2019-04-22T16:10:53.708Z,6.50
2019-04-22T16:13:25.532Z,6.80
2019-04-22T16:15:52.614Z,6.55
2019-04-22T16:18:22.488Z,6.95
2019-04-22T16:20:52.445Z,7.10
2019-04-22T16:23:27.875Z,7.12
2019-04-22T16:26:00.926Z,6.53
2019-04-22T16:28:29.508Z,7.28
2019-04-22T16:30:59.481Z,7.05
2019-04-22T16:33:28.214Z,7.75
2019-04-22T16:35:56.727Z,7.67
2019-04-22T16:38:26.761Z,8.05
2019-04-22T16:40:56.838Z,8.45
2019-04-22T16:43:26.604Z,8.93
2019-04-22T16:45:55.850Z,8.03
2019-04-22T16:48:25.560Z,8.63
2019-04-22T16:50:54.981Z,9.63
2019-04-22T16:53:25.292Z,10.10
2019-04-22T16:55:54.879Z,9.30
2019-04-22T16:58:25.039Z,9.30
2019-04-22T17:00:54.676Z,11.25
2019-04-22T17:03:31.123Z,10.82
2019-04-22T17:06:07.863Z,10.00
2019-04-22T17:08:37.041Z,11.08
2019-04-22T17:11:07.340Z,11.48
2019-04-22T17:13:38.080Z,12.20
2019-04-22T17:16:07.176Z,11.68
2019-04-22T17:18:37.090Z,11.50
2019-04-22T17:21:08.469Z,12.58
2019-04-22T17:23:37.915Z,12.45
2019-04-22T17:26:06.653Z,12.85
2019-04-22T17:28:35.536Z,14.23
2019-04-22T17:31:04.735Z,15.03
2019-04-22T17:33:34.882Z,14.78
2019-04-22T17:36:03.620Z,15.90
2019-04-22T17:38:43.781Z,16.23
2019-04-22T17:41:20.521Z,16.17
2019-04-22T17:44:12.215Z,16.73
2019-04-22T17:46:19.354Z,15.23
2019-04-22T17:48:59.183Z,15.40
2019-04-22T17:56:30.876Z,17.05
2019-04-22T17:59:17.204Z,19.10
2019-04-22T18:01:29.518Z,18.42
2019-04-22T18:03:48.627Z,20.57
2019-04-22T18:06:34.837Z,20.75
2019-04-22T18:09:01.764Z,20.15
2019-04-22T18:11:40.097Z,21.25
2019-04-22T18:14:14.238Z,20.80
2019-04-22T18:16:34.460Z,20.35
2019-04-22T18:19:00.754Z,22.40
2019-04-22T18:21:26.439Z,21.02
2019-04-22T18:23:54.019Z,19.35
2019-04-22T18:26:32.138Z,20.08
2019-04-22T18:29:02.422Z,19.25
2019-04-22T18:31:26.906Z,19.32
2019-04-22T18:33:56.432Z,19.12
2019-04-22T18:36:29.075Z,17.82
2019-04-22T18:39:11.175Z,18.65
2019-04-22T18:41:36.856Z,17.37
2019-04-22T18:44:06.064Z,17.98
2019-04-22T18:46:33.010Z,17.48
2019-04-22T18:49:03.384Z,17.85
2019-04-22T18:51:42.559Z,18.23
2019-04-22T18:54:11.925Z,16.95
2019-04-22T18:56:43.777Z,17.90
2019-04-22T18:58:59.386Z,18.23
2019-04-22T19:01:21.815Z,18.30
2019-04-22T19:04:01.308Z,18.55
2019-04-22T19:09:16.729Z,18.57
2019-04-22T19:11:52.183Z,19.35
2019-04-22T19:14:10.171Z,19.60
2019-04-22T19:17:07.909Z,19.87
2019-04-22T19:21:43.313Z,21.75
2019-04-22T19:24:09.472Z,21.93
2019-04-22T19:26:58.700Z,21.60
2019-04-22T19:29:13.434Z,22.60
2019-04-22T19:31:49.786Z,22.15
2019-04-22T19:34:17.739Z,21.82
2019-04-22T19:36:48.393Z,21.57
2019-04-22T19:39:13.182Z,20.80
2019-04-22T19:41:53.587Z,22.37
2019-04-22T19:44:14.588Z,21.65
2019-04-22T19:46:55.647Z,20.80
2019-04-22T19:49:24.594Z,21.30
2019-04-22T19:51:53.912Z,21.57
2019-04-22T19:54:14.040Z,21.37
2019-04-22T19:56:38.352Z,21.77
2019-04-22T19:59:12.123Z,20.45
2019-04-22T20:01:47.211Z,20.40
2019-04-22T20:04:31.481Z,20.65
2019-04-22T20:06:53.504Z,21.42
2019-04-22T20:09:30.124Z,19.77
2019-04-22T20:11:59.624Z,20.37
2019-04-22T20:14:29.821Z,19.77
2019-04-22T20:16:54.773Z,20.05
2019-04-22T20:19:39.826Z,18.67
2019-04-22T20:22:02.637Z,19.37
2019-04-22T20:24:16.838Z,17.92
2019-04-22T20:27:02.942Z,19.10
2019-04-22T20:29:38.368Z,18.57
2019-04-22T20:32:05.538Z,18.00
2019-04-22T20:34:40.886Z,18.02
2019-04-22T20:37:10.220Z,18.35
2019-04-22T20:39:40.943Z,17.80
2019-04-22T20:42:19.454Z,18.40
2019-04-22T20:44:39.538Z,16.93
2019-04-22T20:47:04.667Z,17.50
2019-04-22T20:49:38.330Z,16.97
2019-04-22T20:52:16.355Z,17.40
2019-04-22T20:54:37.250Z,15.80
2019-04-22T20:57:04.306Z,16.67
2019-04-22T20:59:32.951Z,16.50
2019-04-22T21:02:03.127Z,17.07
2019-04-22T21:04:26.097Z,17.17
2019-04-22T21:07:01.896Z,16.30
2019-04-22T21:09:35.550Z,16.20
2019-04-22T21:12:02.163Z,15.57
2019-04-22T21:14:32.442Z,16.27
2019-04-22T21:17:11.911Z,16.47
2019-04-22T21:22:08.050Z,15.77
2019-04-22T21:24:36.091Z,15.57
2019-04-22T21:27:14.092Z,15.50
2019-04-22T21:29:33.595Z,16.37
2019-04-22T21:32:10.461Z,15.73
2019-04-22T21:34:47.556Z,14.73
2019-04-22T21:37:17.031Z,14.53
2019-04-22T21:39:40.170Z,14.87
2019-04-22T21:42:11.871Z,15.23
2019-04-22T21:44:38.076Z,13.37
2019-04-22T21:47:14.535Z,13.50
2019-04-22T21:49:45.865Z,13.10
2019-04-22T21:52:13.471Z,12.53
2019-04-22T21:54:46.692Z,13.15
2019-04-22T21:57:18.957Z,11.80
2019-04-22T21:59:46.149Z,11.83
2019-04-22T22:02:25.657Z,12.20
2019-04-22T22:04:48.903Z,12.77
2019-04-22T22:07:07.536Z,11.60
2019-04-22T22:09:49.023Z,11.33
2019-04-22T22:12:17.116Z,11.87
2019-04-22T22:14:50.124Z,11.13
2019-04-22T22:17:20.650Z,11.35
2019-04-22T22:19:49.869Z,10.55
2019-04-22T22:22:39.820Z,11.22
2019-04-22T22:24:50.148Z,10.73
2019-04-22T22:27:18.526Z,11.30
2019-04-22T22:30:16.412Z,10.88
2019-04-22T22:32:25.445Z,11.00
2019-04-22T22:34:50.741Z,10.47
2019-04-22T22:37:13.402Z,10.85
2019-04-22T22:39:42.918Z,10.75
2019-04-22T22:42:03.645Z,10.33
2019-04-22T22:44:36.880Z,10.72
2019-04-22T22:47:18.096Z,10.80
2019-04-22T22:49:53.068Z,11.13
2019-04-22T22:52:44.632Z,11.25
2019-04-22T22:54:54.143Z,11.30
2019-04-22T22:57:27.646Z,10.53
2019-04-22T22:59:57.795Z,10.87
2019-04-22T23:02:24.849Z,10.27
2019-04-22T23:04:57.713Z,10.78
2019-04-22T23:07:28.929Z,10.98
2019-04-22T23:09:53.664Z,10.93
2019-04-22T23:12:34.590Z,11.50
2019-04-22T23:14:55.755Z,10.70
2019-04-22T23:17:11.850Z,11.13
2019-04-22T23:19:40.649Z,10.97
2019-04-22T23:22:20.546Z,10.87
2019-04-22T23:25:01.237Z,11.30
2019-04-22T23:27:40.412Z,11.60
2019-04-22T23:30:05.313Z,10.97
2019-04-22T23:32:38.842Z,11.83
2019-04-22T23:35:17.984Z,12.07
2019-04-22T23:37:51.000Z,11.30
2019-04-22T23:42:53.857Z,11.70
2019-04-22T23:45:21.176Z,11.90
2019-04-22T23:47:44.889Z,11.77
2019-04-22T23:50:26.474Z,12.97
2019-04-22T23:52:54.419Z,12.23
2019-04-22T23:55:29.821Z,12.43
2019-04-22T23:58:19.095Z,12.27
